ADDS METAR Data INFO
IDs: Format: Raw Decoded Include TAF

Data at: 0259 UTC 21 Jun 2018

NZAA 210230Z AUTO 11013KT 9999 SCT055/// BKN070/// 13/07 Q1013 NOSIG
NZAA 210200Z AUTO 11016KT 9999 -RA BKN060/// 13/07 Q1013 REDZ NOSIG
NZAA 210130Z AUTO 11015KT 9999 OVC070/// 13/07 Q1013 NOSIG
NZAA 210100Z AUTO 10014KT 9999 FEW039/// BKN046/// OVC095/// 12/07 Q1013 NOSIG
NZAA 210030Z AUTO 12017KT 9999 SCT042/// BKN060/// 12/07 Q1013 NOSIG
NZAA 210000Z AUTO 12020KT 9999 SCT070/// 12/08 Q1013 NOSIG

TAF NZAA 202310Z 2100/2200 14015G25KT 9999 -SHRA FEW035 BKN050
  FM210700 14008KT 9999 FEW035 SCT050